Time;durP1;ratioP1;P1;durP2;ratioP2;P2;SDS_P1;SDS_P2;PMS_P1;PMS_P2;Temp;Humidity;BMP_temperature;BMP_pressure;BME280_temperature;BME280_humidity;BME280_pressure;Samples;Min_cycle;Max_cycle;Signal;HPM_P1;HPM_P2
2024/03/31 00:00:22;;;;;;;21.27;3.65;;;12.40;63.30;;;8.09;100.00;93850.28;4968026;28;20520;-53
2024/03/31 00:02:48;;;;;;;17.67;3.75;;;12.40;63.40;;;8.05;100.00;93855.38;4970829;28;20018;-56
2024/03/31 00:05:14;;;;;;;27.30;3.25;;;12.40;63.20;;;8.05;100.00;93855.38;4966422;28;20028;-55
2024/03/31 00:07:40;;;;;;;19.17;4.00;;;12.40;63.20;;;8.05;100.00;93863.34;4965002;28;20601;-53
2024/03/31 00:10:07;;;;;;;16.95;3.83;;;12.40;63.20;;;8.04;100.00;93845.03;4964547;28;20033;-54
2024/03/31 00:12:33;;;;;;;19.10;3.60;;;12.40;63.20;;;8.04;100.00;93829.91;4963753;28;20497;-54
2024/03/31 00:14:58;;;;;;;21.17;3.78;;;12.40;63.20;;;8.03;100.00;93824.91;4963003;28;20113;-56
2024/03/31 00:17:25;;;;;;;18.05;3.50;;;12.40;63.20;;;7.96;100.00;93822.63;4970293;28;20105;-55
2024/03/31 00:19:52;;;;;;;19.67;3.63;;;12.40;63.20;;;7.96;100.00;93816.53;4963137;28;20037;-54
2024/03/31 00:22:18;;;;;;;16.70;3.50;;;12.40;63.20;;;7.93;100.00;93812.63;4971408;28;20066;-52
2024/03/31 00:24:44;;;;;;;15.63;3.22;;;12.40;63.20;;;7.88;100.00;93800.22;4969093;28;20164;-55
2024/03/31 00:27:12;;;;;;;31.85;3.72;;;12.40;63.20;;;7.79;100.00;93799.31;4964702;28;20033;-54
2024/03/31 00:29:38;;;;;;;24.05;3.92;;;12.30;63.20;;;7.70;100.00;93790.44;4970072;28;20077;-53
2024/03/31 00:32:05;;;;;;;19.98;4.50;;;12.30;63.20;;;7.68;100.00;93787.31;4965585;28;20030;-51
2024/03/31 00:34:31;;;;;;;23.45;3.50;;;12.20;63.10;;;7.65;100.00;93779.94;4967509;28;20167;-50
2024/03/31 00:36:57;;;;;;;19.27;3.97;;;12.10;63.00;;;7.50;100.00;93757.09;4966038;28;20097;-52
2024/03/31 00:39:23;;;;;;;18.50;3.60;;;12.10;63.10;;;7.36;100.00;93762.38;4972161;28;20038;-53
2024/03/31 00:41:50;;;;;;;19.58;4.93;;;12.00;63.10;;;7.37;100.00;93766.59;4971166;28;20018;-55
2024/03/31 00:44:16;;;;;;;20.38;4.20;;;11.90;63.10;;;7.32;100.00;93771.16;4970466;28;20034;-55
2024/03/31 00:46:42;;;;;;;22.42;3.90;;;11.80;63.00;;;7.23;100.00;93762.28;4954518;28;20064;-57
2024/03/31 00:49:08;;;;;;;23.33;5.55;;;11.70;63.00;;;7.16;100.00;93763.44;4964366;28;20461;-53
2024/03/31 00:51:34;;;;;;;23.75;4.22;;;11.60;63.10;;;7.08;100.00;93764.09;4962115;28;20083;-55
2024/03/31 00:54:00;;;;;;;33.67;5.03;;;11.60;63.20;;;7.03;100.00;93763.38;4967062;28;20438;-53
2024/03/31 00:56:26;;;;;;;24.08;3.78;;;11.50;63.30;;;6.92;100.00;93757.41;4969803;28;20121;-51
2024/03/31 00:58:52;;;;;;;27.08;4.40;;;11.50;63.60;;;6.85;100.00;93757.00;4968003;28;20060;-54
2024/03/31 01:01:18;;;;;;;24.02;3.72;;;11.40;63.60;;;6.85;100.00;93773.66;4970154;28;20034;-55
2024/03/31 01:03:44;;;;;;;23.10;4.35;;;11.30;63.60;;;6.83;100.00;93767.06;4960523;28;20481;-54
2024/03/31 01:06:22;;;;;;;26.23;3.85;;;11.30;63.80;;;6.76;100.00;93756.03;4964986;28;20026;-56
2024/03/31 01:08:51;;;;;;;25.17;4.10;;;11.30;63.90;;;6.68;100.00;93755.63;4970315;28;20535;-50
2024/03/31 01:11:18;;;;;;;28.08;3.90;;;11.20;64.50;;;6.60;100.00;93758.09;4960485;28;20034;-57
2024/03/31 01:13:46;;;;;;;28.85;4.60;;;11.10;63.70;;;6.56;100.00;93754.47;4968686;28;20516;-52
2024/03/31 01:16:13;;;;;;;20.88;3.55;;;11.00;63.80;;;6.47;100.00;93756.94;4969702;28;20038;-52
2024/03/31 01:18:40;;;;;;;25.48;5.10;;;11.00;63.90;;;6.45;100.00;93759.84;4966635;28;20023;-51
2024/03/31 01:21:08;;;;;;;36.60;4.80;;;10.90;63.90;;;6.45;100.00;93745.84;4966473;28;20046;-51
2024/03/31 01:23:43;;;;;;;29.55;4.95;;;10.90;64.10;;;6.46;100.00;93745.56;4943240;28;20042;-53
2024/03/31 01:26:10;;;;;;;21.33;4.30;;;10.90;64.60;;;6.46;100.00;93747.44;4972269;23;20058;-52
2024/03/31 01:28:37;;;;;;;27.30;4.25;;;10.80;64.30;;;6.36;100.00;93737.75;4969785;28;20026;-53
2024/03/31 01:31:03;;;;;;;25.55;4.25;;;10.80;64.40;;;6.29;100.00;93742.59;4966668;28;20030;-54
2024/03/31 01:33:29;;;;;;;19.13;4.45;;;10.70;64.20;;;6.15;100.00;93737.19;4968986;28;20641;-50
2024/03/31 01:36:03;;;;;;;25.73;4.85;;;10.70;64.30;;;6.10;100.00;93721.38;4961093;28;20046;-54
2024/03/31 01:38:29;;;;;;;24.58;4.68;;;10.70;64.50;;;6.08;100.00;93723.53;4951962;28;20031;-52
2024/03/31 01:40:55;;;;;;;23.02;5.03;;;10.60;64.30;;;5.97;100.00;93716.78;4950794;28;20033;-53
2024/03/31 01:43:21;;;;;;;20.02;4.53;;;10.50;64.40;;;5.86;100.00;93720.53;4955008;28;20160;-53
2024/03/31 01:45:48;;;;;;;20.05;4.38;;;10.40;64.20;;;5.77;100.00;93709.81;4950373;28;20084;-51
2024/03/31 01:48:14;;;;;;;23.65;5.28;;;10.40;64.20;;;5.68;100.00;93707.00;4950833;28;20023;-51
2024/03/31 01:50:40;;;;;;;26.05;5.78;;;10.30;64.20;;;5.67;100.00;93712.53;4951908;28;20023;-50
2024/03/31 01:53:06;;;;;;;25.98;5.00;;;10.20;64.40;;;5.70;100.00;93718.06;4953714;28;20030;-55
2024/03/31 01:55:32;;;;;;;36.70;5.97;;;10.20;64.60;;;5.73;100.00;93719.34;4950830;28;20534;-50
2024/03/31 01:57:58;;;;;;;30.23;5.35;;;10.20;64.90;;;5.76;100.00;93713.50;4950708;28;20041;-50
2024/03/31 02:00:24;;;;;;;24.20;4.18;;;10.10;65.00;;;5.79;100.00;93708.44;4951380;28;20026;-50
2024/03/31 02:02:50;;;;;;;38.80;6.55;;;10.10;65.30;;;5.83;100.00;93707.88;4951595;28;20046;-50
2024/03/31 02:05:15;;;;;;;38.42;5.68;;;10.20;65.60;;;5.87;100.00;93707.06;4955843;28;20026;-51
2024/03/31 02:07:41;;;;;;;31.80;5.30;;;10.20;65.70;;;5.87;100.00;93695.72;4951302;28;20036;-53
2024/03/31 02:10:10;;;;;;;32.78;5.55;;;10.20;65.80;;;5.81;100.00;93687.06;4950900;28;20373;-54
2024/03/31 02:12:37;;;;;;;34.10;4.90;;;10.20;65.80;;;5.79;100.00;93686.53;4951542;28;20054;-50
2024/03/31 02:15:04;;;;;;;29.98;4.95;;;10.20;65.70;;;5.74;100.00;93684.75;4951179;28;20072;-54
2024/03/31 02:17:31;;;;;;;31.63;4.95;;;10.20;65.70;;;5.66;100.00;93685.34;4950473;28;20442;-54
2024/03/31 02:19:57;;;;;;;30.92;5.57;;;10.20;65.70;;;5.64;100.00;93676.13;4951073;28;20041;-56
2024/03/31 02:22:23;;;;;;;29.15;5.32;;;10.10;65.80;;;5.71;100.00;93672.09;4950152;28;20038;-56
2024/03/31 02:24:49;;;;;;;27.58;5.70;;;10.20;66.00;;;5.74;100.00;93674.19;4951066;28;20039;-56
2024/03/31 02:27:15;;;;;;;49.10;6.93;;;10.10;66.20;;;5.80;100.00;93674.91;4949474;28;20397;-55
2024/03/31 02:29:41;;;;;;;36.95;4.82;;;10.20;66.50;;;5.83;100.00;93666.44;4950022;28;20026;-53
2024/03/31 02:32:07;;;;;;;30.40;4.53;;;10.20;66.70;;;5.82;100.00;93653.47;4951677;28;20023;-54
2024/03/31 02:34:33;;;;;;;31.77;5.63;;;10.20;66.80;;;5.88;100.00;93642.56;4947035;28;20039;-56
2024/03/31 02:36:59;;;;;;;31.10;5.18;;;10.30;66.90;;;5.97;100.00;93656.78;4949498;28;20040;-55
2024/03/31 02:39:25;;;;;;;44.90;5.55;;;10.30;67.00;;;6.02;100.00;93667.28;4948323;28;20031;-54
2024/03/31 02:41:51;;;;;;;38.90;4.90;;;10.40;67.10;;;6.02;100.00;93662.00;4951147;28;20035;-51
2024/03/31 02:44:18;;;;;;;27.38;4.97;;;10.40;67.00;;;5.98;100.00;93663.63;4953538;28;20026;-55
2024/03/31 02:46:47;;;;;;;35.35;4.13;;;10.40;66.90;;;6.02;100.00;93677.88;4945957;28;20492;-56
2024/03/31 02:49:13;;;;;;;36.95;5.28;;;10.40;66.90;;;6.06;100.00;93688.66;4951328;28;20073;-51
2024/03/31 02:51:39;;;;;;;28.33;4.38;;;10.40;66.90;;;6.00;100.00;93672.06;4952922;28;20035;-56
2024/03/31 02:54:05;;;;;;;34.15;4.45;;;10.50;67.00;;;6.04;100.00;93667.00;4952333;28;20101;-54
2024/03/31 02:56:31;;;;;;;34.67;4.60;;;10.50;67.00;;;6.06;100.00;93672.78;4951043;28;20030;-52
2024/03/31 02:58:58;;;;;;;34.45;4.68;;;10.50;66.80;;;6.05;100.00;93665.13;4952130;28;20507;-56
2024/03/31 03:01:23;;;;;;;28.77;4.60;;;10.50;66.80;;;5.96;100.00;93683.50;4951481;28;20022;-53
2024/03/31 03:03:49;;;;;;;31.27;4.75;;;10.50;66.70;;;5.99;100.00;93696.94;4953417;28;20082;-56
2024/03/31 03:06:15;;;;;;;32.38;3.95;;;10.50;66.70;;;5.97;100.00;93685.84;4952082;28;20035;-53
2024/03/31 03:08:41;;;;;;;28.17;4.05;;;10.50;66.80;;;6.00;100.00;93689.78;4951081;28;20432;-52
2024/03/31 03:11:07;;;;;;;34.80;4.75;;;10.50;66.90;;;6.06;100.00;93691.31;4951754;28;20046;-53
2024/03/31 03:13:34;;;;;;;34.80;4.65;;;10.50;66.90;;;6.07;100.00;93707.94;4951903;28;20493;-54
2024/03/31 03:16:03;;;;;;;29.35;4.72;;;10.50;66.80;;;6.01;100.00;93709.84;4950781;28;20035;-53
2024/03/31 03:18:29;;;;;;;20.83;3.63;;;10.50;66.80;;;5.97;100.00;93719.41;4951222;28;20034;-54
2024/03/31 03:20:59;;;;;;;27.88;3.97;;;10.50;66.60;;;5.86;100.00;93721.34;4953069;28;20384;-52
2024/03/31 03:23:26;;;;;;;30.27;5.18;;;10.50;66.50;;;5.76;100.00;93719.56;4954223;28;20022;-53
2024/03/31 03:25:59;;;;;;;31.38;3.92;;;10.40;66.30;;;5.75;100.00;93723.28;4955311;28;20076;-53
2024/03/31 03:28:26;;;;;;;30.00;4.38;;;10.40;66.40;;;5.76;100.00;93730.16;4951997;28;20026;-52
2024/03/31 03:30:52;;;;;;;31.05;4.88;;;10.40;66.30;;;5.72;100.00;93726.50;4955216;28;20030;-52
2024/03/31 03:33:18;;;;;;;27.27;4.38;;;10.30;66.30;;;5.73;100.00;93733.34;4953356;28;20058;-51
2024/03/31 03:35:45;;;;;;;29.63;4.50;;;10.30;66.40;;;5.73;100.00;93732.56;4954930;28;20069;-52
2024/03/31 03:38:11;;;;;;;29.02;4.72;;;10.30;66.40;;;5.71;100.00;93732.84;4955159;28;20036;-55
2024/03/31 03:40:37;;;;;;;39.25;4.22;;;10.30;66.40;;;5.70;100.00;93738.41;4953524;28;20027;-54
2024/03/31 03:43:03;;;;;;;28.73;4.47;;;10.30;66.50;;;5.69;100.00;93731.56;4956062;28;20072;-53
2024/03/31 03:45:29;;;;;;;31.10;4.18;;;10.30;66.40;;;5.69;100.00;93723.63;4952614;28;20019;-50
2024/03/31 03:47:55;;;;;;;32.67;4.22;;;10.30;66.40;;;5.67;100.00;93725.75;4951803;28;20030;-54
2024/03/31 03:50:21;;;;;;;30.83;4.50;;;10.30;66.50;;;5.67;100.00;93717.81;4954670;28;20019;-54
2024/03/31 03:52:47;;;;;;;29.77;4.78;;;10.30;66.50;;;5.66;100.00;93713.63;4953548;28;20038;-52
2024/03/31 03:55:13;;;;;;;20.80;4.20;;;10.30;66.50;;;5.67;100.00;93721.28;4954346;28;20034;-53
2024/03/31 03:57:39;;;;;;;42.05;4.57;;;10.30;66.50;;;5.66;100.00;93717.03;4953644;28;20026;-55
2024/03/31 04:00:06;;;;;;;35.53;4.55;;;10.30;66.50;;;5.65;100.00;93709.41;4954408;28;20018;-53
2024/03/31 04:02:32;;;;;;;32.15;5.07;;;10.30;66.30;;;5.63;100.00;93709.66;4968607;28;20022;-56
2024/03/31 04:04:58;;;;;;;27.63;4.82;;;10.30;66.60;;;5.64;100.00;93707.81;4952400;28;20545;-55
2024/03/31 04:07:23;;;;;;;35.05;5.05;;;10.30;66.60;;;5.64;100.00;93713.91;4954088;28;20485;-53
2024/03/31 04:09:49;;;;;;;40.58;5.72;;;10.30;66.80;;;5.66;100.00;93703.84;4952988;28;20473;-56
2024/03/31 04:12:15;;;;;;;27.90;4.43;;;10.30;66.80;;;5.69;100.00;93698.00;4953408;28;20027;-53
2024/03/31 04:14:41;;;;;;;30.23;4.43;;;10.20;66.90;;;5.72;100.00;93689.50;4954257;28;20114;-55
2024/03/31 04:17:07;;;;;;;35.65;5.82;;;10.30;66.90;;;5.71;100.00;93695.88;4953113;28;20046;-55
2024/03/31 04:19:33;;;;;;;35.03;5.30;;;10.30;67.00;;;5.74;100.00;93694.53;4947325;28;20034;-52
2024/03/31 04:21:59;;;;;;;34.30;6.25;;;10.30;67.20;;;5.75;100.00;93688.16;4953218;28;20027;-53
2024/03/31 04:24:25;;;;;;;31.00;5.63;;;10.30;67.20;;;5.73;100.00;93677.88;4953758;28;20553;-56
2024/03/31 04:26:50;;;;;;;35.25;5.18;;;10.30;67.20;;;5.72;100.00;93676.28;4953988;28;20039;-53
2024/03/31 04:29:16;;;;;;;33.40;5.25;;;10.30;67.20;;;5.74;100.00;93676.81;4953166;28;20070;-54
2024/03/31 04:31:57;;;;;;;32.58;5.55;;;10.30;67.40;;;5.78;100.00;93669.91;4954353;28;20466;-54
2024/03/31 04:34:30;;;;;;;34.00;5.30;;;10.30;67.80;;;5.80;100.00;93654.56;4951628;28;20580;-54
2024/03/31 04:36:57;;;;;;;41.55;5.75;;;10.30;67.70;;;5.84;100.00;93664.56;4953988;28;20022;-52
2024/03/31 04:39:24;;;;;;;37.45;5.35;;;10.30;67.60;;;5.85;100.00;93659.00;4952456;28;20057;-52
2024/03/31 04:41:54;;;;;;;37.25;5.38;;;10.40;67.80;;;5.88;100.00;93663.72;4954227;28;20035;-53
2024/03/31 04:44:20;;;;;;;29.35;5.50;;;10.40;68.00;;;5.92;100.00;93664.75;4954038;28;20034;-50
2024/03/31 04:46:49;;;;;;;43.10;6.20;;;10.40;67.90;;;5.98;100.00;93673.41;4952177;28;20019;-52
2024/03/31 04:49:19;;;;;;;39.17;6.03;;;10.40;68.00;;;6.01;100.00;93678.91;4953477;28;20053;-53
2024/03/31 04:51:48;;;;;;;35.67;6.50;;;10.50;68.90;;;6.04;100.00;93667.00;4951811;28;20568;-55
2024/03/31 04:54:16;;;;;;;35.72;5.63;;;10.50;68.30;;;6.05;100.00;93660.66;4953252;28;20034;-54
2024/03/31 04:56:42;;;;;;;27.52;5.55;;;10.50;68.10;;;6.06;100.00;93672.00;4953472;28;20053;-51
2024/03/31 04:59:08;;;;;;;31.90;5.50;;;10.60;68.10;;;6.09;100.00;93674.88;4952345;28;20027;-54
2024/03/31 05:01:35;;;;;;;34.22;5.05;;;10.60;68.30;;;6.08;100.00;93661.94;4953578;28;20058;-51
2024/03/31 05:04:01;;;;;;;33.80;5.30;;;10.60;68.20;;;6.09;100.00;93652.94;4950439;28;20121;-50
2024/03/31 05:06:27;;;;;;;31.15;5.55;;;10.60;68.20;;;6.13;100.00;93652.09;4951835;28;20098;-53
2024/03/31 05:08:53;;;;;;;29.38;5.15;;;10.70;68.30;;;6.12;100.00;93644.44;4968117;28;20082;-52
2024/03/31 05:11:19;;;;;;;26.67;5.93;;;10.70;68.30;;;6.05;100.00;93634.22;4951064;28;20070;-51
2024/03/31 05:13:45;;;;;;;34.67;5.47;;;10.70;68.30;;;6.09;100.00;93632.59;4953671;28;20034;-51
2024/03/31 05:16:11;;;;;;;39.53;6.32;;;10.70;68.20;;;6.10;100.00;93631.50;4948865;28;20041;-52
2024/03/31 05:18:38;;;;;;;37.13;6.35;;;10.70;68.20;;;6.12;100.00;93636.53;4952206;28;20022;-54
2024/03/31 05:21:09;;;;;;;27.38;5.38;;;10.70;68.20;;;6.12;100.00;93629.38;4950578;28;20014;-53
2024/03/31 05:23:42;;;;;;;28.48;4.93;;;10.70;68.40;;;6.11;100.00;93624.34;4951129;28;20405;-55
2024/03/31 05:26:13;;;;;;;33.15;4.50;;;10.70;68.30;;;6.14;100.00;93643.09;4951527;28;20061;-53
2024/03/31 05:28:39;;;;;;;28.98;4.00;;;10.80;68.50;;;6.10;100.00;93636.78;4952391;28;20041;-54
2024/03/31 05:31:05;;;;;;;37.40;4.30;;;10.80;68.40;;;6.14;100.00;93632.53;4952946;28;20129;-56
2024/03/31 05:33:32;;;;;;;31.50;5.45;;;10.80;68.60;;;6.19;100.00;93624.53;4951841;28;20023;-52
2024/03/31 05:35:58;;;;;;;31.20;4.93;;;10.80;68.60;;;6.26;100.00;93632.09;4952835;28;20027;-52
2024/03/31 05:38:27;;;;;;;36.83;4.30;;;10.90;68.60;;;6.31;100.00;93633.91;4952848;28;20077;-53
2024/03/31 05:40:53;;;;;;;31.65;4.22;;;10.90;68.70;;;6.34;100.00;93628.81;4951674;28;20019;-52
2024/03/31 05:43:18;;;;;;;31.52;4.47;;;11.00;68.70;;;6.31;100.00;93623.31;4957526;28;20021;-54
2024/03/31 05:45:44;;;;;;;31.98;4.47;;;11.00;68.70;;;6.39;100.00;93622.66;4951417;28;20026;-52
2024/03/31 05:48:12;;;;;;;31.52;4.82;;;11.10;68.70;;;6.43;100.00;93624.47;4953006;28;20455;-51
2024/03/31 05:50:40;;;;;;;30.15;4.53;;;11.10;68.70;;;6.43;100.00;93610.47;4951312;28;20089;-51
2024/03/31 05:53:06;;;;;;;19.33;4.25;;;11.20;68.70;;;6.49;100.00;93627.84;4949586;28;20061;-51
2024/03/31 05:55:32;;;;;;;34.20;4.63;;;11.20;68.70;;;6.55;100.00;93618.75;4952234;28;20109;-50
2024/03/31 05:57:59;;;;;;;33.35;4.43;;;11.30;68.60;;;6.52;100.00;93600.00;4951359;28;20118;-51
2024/03/31 06:00:26;;;;;;;33.85;4.88;;;11.40;68.60;;;6.65;100.00;93604.59;4952164;28;20437;-52
2024/03/31 06:02:53;;;;;;;30.08;4.03;;;11.40;68.40;;;6.70;100.00;93605.28;4967494;28;20409;-53
2024/03/31 06:05:19;;;;;;;27.15;4.47;;;11.50;68.40;;;6.78;100.00;93606.50;4947386;28;20113;-53
2024/03/31 06:07:50;;;;;;;29.95;4.07;;;11.60;68.40;;;6.75;100.00;93601.00;4946320;28;20026;-52
2024/03/31 06:10:17;;;;;;;30.05;4.35;;;11.70;68.50;;;6.84;100.00;93597.41;4949530;28;20022;-53
2024/03/31 06:12:44;;;;;;;26.20;5.22;;;11.70;68.30;;;6.88;100.00;93589.69;4951001;28;20478;-54
2024/03/31 06:15:10;;;;;;;38.28;5.18;;;11.80;68.30;;;6.96;100.00;93596.97;4951840;28;20161;-52
2024/03/31 06:17:39;;;;;;;32.03;5.65;;;11.90;68.20;;;7.12;100.00;93595.63;4951013;28;20042;-52
2024/03/31 06:20:09;;;;;;;25.33;3.95;;;12.00;68.10;;;7.25;100.00;93598.59;4952075;28;20581;-53
2024/03/31 06:22:42;;;;;;;24.70;4.93;;;12.20;68.00;;;7.32;100.00;93578.59;4951237;28;20046;-52
2024/03/31 06:25:08;;;;;;;;;;;12.30;68.00;;;7.42;100.00;93594.28;4952034;28;20022;-52
2024/03/31 06:27:35;;;;;;;27.60;4.55;;;12.50;67.40;;;7.45;100.00;93577.03;4951092;28;19914;-51
2024/03/31 06:30:03;;;;;;;20.85;3.97;;;12.60;67.30;;;7.48;100.00;93580.97;4951873;28;20026;-51
2024/03/31 06:32:29;;;;;;;26.75;3.65;;;12.70;67.30;;;7.48;100.00;93570.38;4952010;28;20037;-53
2024/03/31 06:34:55;;;;;;;22.95;4.07;;;12.80;67.20;;;7.67;100.00;93557.81;4950348;28;20022;-52
2024/03/31 06:37:21;;;;;;;23.08;3.63;;;12.90;67.00;;;7.82;100.00;93559.38;4952254;28;20469;-50
2024/03/31 06:39:47;;;;;;;18.13;3.70;;;12.90;66.70;;;7.94;100.00;93567.63;4950742;28;20045;-53
2024/03/31 06:42:15;;;;;;;21.33;3.92;;;13.10;66.60;;;8.01;100.00;93569.88;4952037;28;20389;-50
2024/03/31 06:44:42;;;;;;;26.85;3.58;;;13.30;66.30;;;8.07;100.00;93560.72;4957395;28;20026;-50
2024/03/31 06:47:07;;;;;;;20.35;3.55;;;13.60;66.10;;;8.29;100.00;93557.34;4951116;28;20039;-53
2024/03/31 06:49:33;;;;;;;15.75;4.03;;;13.80;65.60;;;8.59;100.00;93555.91;4951623;28;20555;-52
2024/03/31 06:51:59;;;;;;;22.42;3.28;;;14.10;65.30;;;8.73;100.00;93553.97;4951270;28;20084;-52
2024/03/31 06:54:25;;;;;;;15.55;2.97;;;14.40;65.00;;;8.87;100.00;93556.56;4951113;28;20500;-53
2024/03/31 06:56:51;;;;;;;18.98;2.88;;;14.80;64.70;;;9.02;100.00;93545.59;4953705;28;20462;-57
2024/03/31 06:59:17;;;;;;;21.65;3.13;;;15.10;64.10;;;9.20;100.00;93541.13;4954415;28;20541;-56
2024/03/31 07:01:43;;;;;;;19.20;2.97;;;15.20;63.40;;;9.10;100.00;93532.66;4955735;28;20077;-50
2024/03/31 07:04:09;;;;;;;25.85;3.42;;;15.20;62.90;;;9.26;100.00;93537.25;4954764;28;20061;-55
2024/03/31 07:06:35;;;;;;;17.50;3.13;;;15.20;62.40;;;9.37;100.00;93553.72;4954061;28;20066;-54
2024/03/31 07:09:01;;;;;;;18.33;3.35;;;15.20;62.20;;;9.39;100.00;93558.72;4955534;28;20030;-53
2024/03/31 07:11:28;;;;;;;17.98;2.88;;;15.20;62.00;;;9.30;100.00;93549.94;4951088;28;20022;-51
2024/03/31 07:13:54;;;;;;;19.15;3.00;;;15.20;62.10;;;9.46;100.00;93561.72;4969816;28;20062;-54
2024/03/31 07:16:20;;;;;;;27.38;3.45;;;15.20;61.70;;;9.55;100.00;93581.16;4952663;28;20069;-54
2024/03/31 07:18:46;;;;;;;28.42;4.32;;;15.20;61.50;;;9.65;100.00;93551.66;4953804;28;20082;-52
2024/03/31 07:21:11;;;;;;;20.45;3.67;;;15.30;61.50;;;9.51;100.00;93532.38;4952327;28;20023;-53
2024/03/31 07:23:37;;;;;;;20.67;3.78;;;15.30;61.50;;;9.57;100.00;93559.59;4953146;28;20122;-53
2024/03/31 07:26:03;;;;;;;18.15;3.53;;;15.40;61.20;;;9.66;100.00;93552.44;4955079;28;20405;-51
2024/03/31 07:28:29;;;;;;;26.30;3.95;;;15.30;60.80;;;9.41;100.00;93522.00;4953357;28;20030;-52
2024/03/31 07:30:55;;;;;;;19.30;3.85;;;15.30;60.90;;;9.53;100.00;93548.00;4954055;28;20029;-50
2024/03/31 07:33:21;;;;;;;17.88;3.42;;;15.30;60.70;;;9.56;100.00;93561.47;4953331;28;20034;-51
2024/03/31 07:35:47;;;;;;;19.70;3.92;;;15.30;60.30;;;9.59;100.00;93528.16;4953697;28;20026;-53
2024/03/31 07:38:13;;;;;;;17.55;3.60;;;15.30;60.30;;;9.71;100.00;93536.34;4954113;28;20027;-54
2024/03/31 07:40:39;;;;;;;29.30;4.00;;;15.40;60.20;;;9.77;100.00;93553.72;4952915;28;20030;-52
2024/03/31 07:43:05;;;;;;;20.05;4.00;;;15.50;60.00;;;9.88;100.00;93552.34;4958983;28;20026;-51
2024/03/31 07:45:31;;;;;;;25.08;3.70;;;15.60;60.00;;;10.08;100.00;93539.56;4954389;28;20109;-52
2024/03/31 07:47:56;;;;;;;24.40;3.97;;;15.90;59.90;;;10.08;100.00;93518.28;4953462;28;20035;-51
2024/03/31 07:50:23;;;;;;;24.75;4.38;;;16.10;59.70;;;10.16;100.00;93505.00;4953492;28;20031;-51
2024/03/31 07:52:49;;;;;;;27.08;4.28;;;16.40;59.60;;;10.38;100.00;93509.41;4952958;28;20041;-55
2024/03/31 07:55:15;;;;;;;20.35;3.75;;;16.60;59.10;;;10.50;100.00;93522.09;4954115;28;20022;-51
2024/03/31 07:57:41;;;;;;;19.40;3.83;;;16.70;58.70;;;10.72;99.38;93525.66;4955141;28;20042;-51
2024/03/31 08:00:07;;;;;;;22.52;3.72;;;16.80;58.40;;;10.78;98.44;93519.09;4958309;28;20030;-50
2024/03/31 08:02:33;;;;;;;17.00;3.20;;;17.00;58.30;;;10.98;95.54;93499.78;4954404;28;20022;-54
2024/03/31 08:04:59;;;;;;;19.88;3.65;;;17.30;57.90;;;11.26;94.84;93518.84;4953028;28;20035;-52
2024/03/31 08:07:25;;;;;;;24.77;3.08;;;17.70;57.60;;;11.71;93.25;93525.56;4952362;28;20030;-50
2024/03/31 08:09:50;;;;;;;15.43;3.42;;;18.20;57.00;;;12.11;90.51;93538.59;4956009;28;20514;-50
2024/03/31 08:12:16;;;;;;;18.92;3.42;;;18.70;56.10;;;12.46;88.48;93523.09;4953262;28;20030;-53
2024/03/31 08:14:42;;;;;;;24.73;3.88;;;19.20;55.70;;;12.84;86.05;93524.84;4953484;28;20049;-51
2024/03/31 08:17:08;;;;;;;17.45;3.90;;;19.60;55.10;;;13.02;82.61;93536.94;4951931;28;20258;-49
2024/03/31 08:19:34;;;;;;;22.65;3.60;;;19.80;54.20;;;13.30;82.11;93539.84;4953183;28;20034;-53
2024/03/31 08:22:00;;;;;;;22.45;3.08;;;19.80;53.90;;;13.22;77.79;93546.00;4952843;28;20039;-53
2024/03/31 08:24:25;;;;;;;19.25;3.80;;;19.90;53.50;;;12.87;78.50;93554.34;4968597;28;20031;-55
2024/03/31 08:26:51;;;;;;;15.07;3.90;;;20.10;52.80;;;12.99;81.67;93550.94;4953119;28;20058;-51
2024/03/31 08:29:20;;;;;;;14.82;3.50;;;20.40;52.50;;;13.49;80.21;93549.25;4952800;28;20018;-50
2024/03/31 08:31:48;;;;;;;13.50;3.17;;;20.80;52.20;;;13.93;76.45;93544.94;4953442;28;20470;-51
2024/03/31 08:34:14;;;;;;;16.05;3.28;;;21.10;51.40;;;13.63;73.33;93552.38;4949877;28;20378;-51
2024/03/31 08:36:40;;;;;;;13.95;3.45;;;21.10;50.80;;;13.14;76.79;93553.00;4964912;28;20030;-51
2024/03/31 08:39:09;;;;;;;19.60;2.60;;;20.90;50.80;;;12.53;81.06;93554.63;4947031;28;20520;-52
2024/03/31 08:41:52;;;;;;;21.38;3.65;;;20.70;50.90;;;12.58;80.28;93535.75;4952574;28;20035;-50
2024/03/31 08:44:18;;;;;;;13.57;3.35;;;20.40;50.50;;;12.42;80.53;93543.56;4957845;28;20504;-54
2024/03/31 08:46:44;;;;;;;13.57;3.22;;;20.10;50.70;;;12.52;81.33;93553.84;4952471;28;20050;-53
2024/03/31 08:49:12;;;;;;;15.00;2.78;;;19.90;50.60;;;12.30;81.19;93551.50;4952520;28;20043;-50
2024/03/31 08:51:40;;;;;;;18.05;3.22;;;19.70;50.60;;;12.46;82.16;93547.13;4951885;28;20497;-54
2024/03/31 08:54:07;;;;;;;23.88;2.78;;;19.50;50.70;;;12.65;82.33;93539.44;4952143;28;20042;-53
2024/03/31 08:56:33;;;;;;;21.63;3.50;;;19.40;51.00;;;12.78;81.15;93547.53;4953014;28;20034;-51
2024/03/31 08:59:00;;;;;;;16.50;3.88;;;19.30;51.10;;;12.48;80.85;93543.03;4951517;28;20030;-51
2024/03/31 09:01:28;;;;;;;15.80;3.05;;;19.20;51.10;;;12.30;80.79;93544.25;4952860;28;20105;-52
2024/03/31 09:03:55;;;;;;;13.60;3.10;;;19.00;51.00;;;12.30;82.22;93541.59;4952133;28;20033;-49
2024/03/31 09:06:25;;;;;;;12.02;2.70;;;18.90;51.00;;;12.43;82.07;93555.78;4952739;28;20029;-50
2024/03/31 09:09:04;;;;;;;17.20;3.47;;;18.80;51.20;;;12.31;85.06;93540.47;4952707;28;20022;-51
2024/03/31 09:11:32;;;;;;;13.95;2.83;;;18.70;51.50;;;12.24;85.81;93530.31;4951718;28;20109;-52
2024/03/31 09:13:58;;;;;;;14.90;3.05;;;18.60;51.60;;;12.16;85.75;93531.19;4946935;28;20517;-51
2024/03/31 09:16:24;;;;;;;18.35;3.30;;;18.50;51.60;;;12.19;85.24;93543.06;4950877;28;20030;-50
2024/03/31 09:18:51;;;;;;;22.73;3.22;;;18.50;51.70;;;12.17;84.32;93543.41;4951965;28;20033;-52
2024/03/31 09:21:17;;;;;;;16.65;3.05;;;18.40;51.70;;;12.07;86.97;93530.44;4952167;28;20105;-55
2024/03/31 09:23:45;;;;;;;18.92;3.47;;;18.40;51.80;;;12.16;86.99;93527.69;4951979;28;20115;-52
2024/03/31 09:26:11;;;;;;;17.02;3.13;;;18.40;52.00;;;12.24;87.09;93519.66;4951535;28;20402;-56
2024/03/31 09:28:38;;;;;;;15.07;3.33;;;18.40;52.00;;;12.33;87.00;93521.47;4950441;28;20109;-50
2024/03/31 09:31:04;;;;;;;23.90;3.70;;;18.40;52.20;;;12.31;84.54;93539.69;4952221;28;20026;-55
2024/03/31 09:33:37;;;;;;;20.10;3.38;;;18.40;52.00;;;12.32;84.53;93527.94;4952118;28;20058;-52
2024/03/31 09:36:05;;;;;;;;;;;18.50;52.00;;;12.30;85.98;93500.78;4953021;28;20041;-50
2024/03/31 09:38:31;;;;;;;14.85;3.33;;;18.40;52.00;;;12.43;86.00;93518.41;4967523;28;19928;-54
2024/03/31 09:40:59;;;;;;;19.35;2.67;;;18.70;51.80;;;12.52;85.47;93527.16;4951118;28;20034;-52
2024/03/31 09:43:26;;;;;;;16.50;3.10;;;18.80;51.70;;;12.62;83.04;93517.94;4957409;28;20022;-51
2024/03/31 09:45:52;;;;;;;16.63;3.20;;;19.00;51.50;;;12.47;85.29;93496.09;4950536;28;20035;-51
2024/03/31 09:48:26;;;;;;;16.08;3.10;;;19.20;51.20;;;12.48;84.47;93518.22;4952130;28;20077;-52
2024/03/31 09:51:08;;;;;;;13.63;2.45;;;19.20;51.00;;;12.76;82.66;93523.81;4951339;28;20202;-51
2024/03/31 09:53:42;;;;;;;22.27;3.58;;;19.30;50.90;;;13.14;81.65;93517.50;4951288;28;20132;-51
2024/03/31 09:56:16;;;;;;;23.38;3.25;;;19.40;51.00;;;13.35;80.49;93520.91;4967145;28;20031;-51
2024/03/31 09:58:48;;;;;;;16.70;2.78;;;19.60;50.70;;;13.35;78.03;93518.25;4951089;28;20084;-53
2024/03/31 10:01:16;;;;;;;16.88;2.65;;;19.60;50.50;;;13.29;78.76;93505.41;4952014;28;20284;-49
2024/03/31 10:03:49;;;;;;;21.60;2.90;;;19.60;50.30;;;13.29;79.10;93514.22;4951345;28;20045;-51
2024/03/31 10:06:18;;;;;;;17.80;3.85;;;19.60;50.70;;;13.28;78.60;93520.66;4950679;28;20109;-54
2024/03/31 10:08:46;;;;;;;13.20;2.88;;;19.60;50.00;;;13.06;79.33;93505.75;4951345;28;20425;-51
2024/03/31 10:11:14;;;;;;;25.23;3.50;;;19.60;49.90;;;12.94;81.50;93514.53;4950395;28;20081;-51